RKSS/GMP METAR and TAF weather

Enter ICAO airport designator
Station Type Date Time Source
RKSS METAR 2020/09/20 06:00 UTC NOAA

RKSS 200600Z 32008KT 260V010 CAVOK 25/11 Q1016 NOSIG


Station Type Date Time Source
RKSS Decoded METAR 2020/09/20 06:00 UTC NOAA

Seoul / Kimp'O International Airport, Korea, South (RKSS) 37-33N 126-48E 18M
Sep 20, 2020 - 02:00 AM EDT / 2020.09.20 0600 UTC
Wind: from the NW (320 degrees) at 9 MPH (8 KT) (direction variable):0
Visibility: greater than 7 mile(s):0
Temperature: 77 F (25 C)
Dew Point: 51 F (11 C)
Relative Humidity: 41%
Pressure (altimeter): 30.00 in. Hg (1016 hPa)
ob: RKSS 200600Z 32008KT 260V010 CAVOK 25/11 Q1016 NOSIG
cycle: 6

Station Type Date Time Source
RKSS TAF 2020/09/20 06:09 UTC NOAA

TAF RKSS 200500Z 2006/2112 30010KT CAVOK TN12/2020Z TX24/2105Z
BECMG 2009/2010 36005KT
BECMG 2017/2018 06005KT
BECMG 2101/2102 34006KT 9999 FEW030 BKN180

Example: see airport list